Time;durP1;ratioP1;P1;durP2;ratioP2;P2;SDS_P1;SDS_P2;PMS_P1;PMS_P2;Temp;Humidity;BMP_temperature;BMP_pressure;BME280_temperature;BME280_humidity;BME280_pressure;Samples;Min_cycle;Max_cycle;Signal;HPM_P1;HPM_P2
2022/12/22 03:26:21;;;;;;;;;3.00;2.00;;;;;-147.17;100.00;-15917.19;4993186;28;51424;-57
2022/12/22 03:28:47;;;;;;;;;2.00;2.00;;;;;-147.17;100.00;-15917.19;4985012;28;51078;-59
2022/12/22 03:31:12;;;;;;;;;3.00;2.33;;;;;-147.17;100.00;-15917.19;4993187;28;50943;-57
2022/12/22 03:33:38;;;;;;;;;3.00;2.00;;;;;-147.17;100.00;-15917.19;4974541;28;51197;-57
2022/12/22 03:36:04;;;;;;;;;2.00;2.00;;;;;-147.17;100.00;-15917.19;4993088;28;51712;-59
2022/12/22 03:38:30;;;;;;;;;4.00;4.00;;;;;-147.17;100.00;-15917.19;4984439;28;51154;-58
2022/12/22 03:40:55;;;;;;;;;2.00;1.33;;;;;-147.17;100.00;-15917.19;4991945;28;51423;-58
2022/12/22 03:51:34;;;;;;;;;1.00;1.00;;;;;-147.17;100.00;-15917.19;4985933;28;51147;-58
2022/12/22 03:54:00;;;;;;;;;1.33;1.00;;;;;-147.17;100.00;-15917.19;4991265;28;52233;-57
2022/12/22 03:56:26;;;;;;;;;1.67;1.00;;;;;-147.17;100.00;-15917.19;4992912;28;51958;-59
2022/12/22 03:58:51;;;;;;;;;1.67;0.00;;;;;-147.17;100.00;-15917.19;4986627;28;51023;-58
2022/12/22 04:01:16;;;;;;;;;3.00;2.00;;;;;-147.17;100.00;-15917.19;4993011;28;51122;-58
2022/12/22 04:03:42;;;;;;;;;2.33;2.00;;;;;-147.17;100.00;-15917.19;4981284;28;51786;-58
2022/12/22 04:06:07;;;;;;;;;2.33;1.67;;;;;-147.17;100.00;-15917.19;4992998;28;52823;-58
2022/12/22 04:08:33;;;;;;;;;2.00;1.00;;;;;-147.17;100.00;-15917.19;4973584;28;51182;-57
2022/12/22 04:13:42;;;;;;;;;3.00;2.00;;;;;-147.17;100.00;-15917.19;4980493;28;51229;-58
2022/12/22 04:16:07;;;;;;;;;3.67;2.00;;;;;-147.17;100.00;-15917.19;4987757;28;51807;-57
2022/12/22 04:18:33;;;;;;;;;0.33;0.00;;;;;-147.17;100.00;-15917.19;4992931;28;51231;-57
2022/12/22 04:20:58;;;;;;;;;1.67;1.00;;;;;-147.17;100.00;-15917.19;4992778;28;51166;-57
2022/12/22 04:23:24;;;;;;;;;3.00;2.00;;;;;-147.17;100.00;-15917.19;4993044;28;50880;-58
2022/12/22 04:25:49;;;;;;;;;1.67;1.00;;;;;-147.17;100.00;-15917.19;4990584;28;51759;-58
2022/12/22 04:28:14;;;;;;;;;3.00;2.00;;;;;-147.17;100.00;-15917.19;4992803;28;51081;-59
2022/12/22 04:30:40;;;;;;;;;2.00;1.00;;;;;-147.17;100.00;-15917.19;4991498;28;51095;-57
2022/12/22 04:33:05;;;;;;;;;1.00;0.67;;;;;-147.17;100.00;-15917.19;4988582;28;51120;-58
2022/12/22 04:35:30;;;;;;;;;2.67;2.00;;;;;-147.17;100.00;-15917.19;4994916;28;50884;-58
2022/12/22 04:37:56;;;;;;;;;1.00;0.00;;;;;-147.17;100.00;-15917.19;4983272;28;51044;-59
2022/12/22 04:40:21;;;;;;;;;2.33;1.00;;;;;-147.17;100.00;-15917.19;4996353;28;51159;-59
2022/12/22 04:42:46;;;;;;;;;1.00;0.33;;;;;-147.17;100.00;-15917.19;4984691;28;50965;-58
2022/12/22 04:45:11;;;;;;;;;1.67;1.00;;;;;-147.17;100.00;-15917.19;4995644;28;51090;-58
2022/12/22 04:47:37;;;;;;;;;0.00;0.00;;;;;-147.17;100.00;-15917.19;4985759;28;51043;-59
2022/12/22 04:50:03;;;;;;;;;1.33;0.00;;;;;-147.17;100.00;-15917.19;4995630;28;51429;-59
2022/12/22 04:52:28;;;;;;;;;0.00;0.00;;;;;-147.17;100.00;-15917.19;4993182;28;51400;-58
2022/12/22 04:54:53;;;;;;;;;1.33;1.00;;;;;-147.17;100.00;-15917.19;4995511;28;51732;-58
2022/12/22 04:57:20;;;;;;;;;0.67;0.00;;;;;-147.17;100.00;-15917.19;4993839;28;51070;-58
2022/12/22 04:59:46;;;;;;;;;0.00;0.00;;;;;-147.17;100.00;-15917.19;4995916;28;51137;-58
2022/12/22 05:02:11;;;;;;;;;1.00;0.00;;;;;-147.17;100.00;-15917.19;4994551;28;50977;-58
2022/12/22 05:04:37;;;;;;;;;0.67;0.00;;;;;-147.17;100.00;-15917.19;4978096;28;51533;-58
2022/12/22 05:07:03;;;;;;;;;0.00;0.00;;;;;-147.17;100.00;-15917.19;4990721;28;51140;-58
2022/12/22 05:09:29;;;;;;;;;0.00;0.00;;;;;-147.17;100.00;-15917.19;4995705;28;51179;-58
2022/12/22 05:11:54;;;;;;;;;0.33;0.33;;;;;-147.17;100.00;-15917.19;4995519;28;51415;-58
2022/12/22 05:14:19;;;;;;;;;0.00;0.00;;;;;-147.17;100.00;-15917.19;4995644;28;52034;-58
2022/12/22 05:16:44;;;;;;;;;0.00;0.00;;;;;-147.17;100.00;-15917.19;4987819;28;51108;-58
2022/12/22 05:19:10;;;;;;;;;0.00;0.00;;;;;-147.17;100.00;-15917.19;4979118;28;50971;-58
2022/12/22 05:21:35;;;;;;;;;0.00;0.00;;;;;-147.17;100.00;-15917.19;4990231;28;51237;-58
2022/12/22 05:24:01;;;;;;;;;1.00;0.00;;;;;-147.17;100.00;-15917.19;4995263;28;51012;-58
2022/12/22 05:26:26;;;;;;;;;1.00;0.00;;;;;-147.17;100.00;-15917.19;4989618;28;51039;-58
2022/12/22 05:28:51;;;;;;;;;0.00;0.00;;;;;-147.17;100.00;-15917.19;4988000;28;50924;-58
2022/12/22 05:31:20;;;;;;;;;0.67;0.00;;;;;-147.17;100.00;-15917.19;4995273;28;51417;-58
2022/12/22 05:33:46;;;;;;;;;0.00;0.00;;;;;-147.17;100.00;-15917.19;4995196;28;51028;-57
2022/12/22 05:36:12;;;;;;;;;0.00;0.00;;;;;-147.17;100.00;-15917.19;4991053;28;51058;-58
2022/12/22 05:38:38;;;;;;;;;0.00;0.00;;;;;-147.17;100.00;-15917.19;4988311;28;50968;-63
2022/12/22 05:41:04;;;;;;;;;0.00;0.00;;;;;-147.17;100.00;-15917.19;4995344;28;50995;-58
2022/12/22 05:43:30;;;;;;;;;0.00;0.00;;;;;-147.17;100.00;-15917.19;4976067;28;51088;-59
2022/12/22 05:45:57;;;;;;;;;0.00;0.00;;;;;-147.17;100.00;-15917.19;4993238;28;51009;-58
2022/12/22 05:48:22;;;;;;;;;0.00;0.00;;;;;-147.17;100.00;-15917.19;4988051;28;51068;-58
2022/12/22 05:50:48;;;;;;;;;0.67;0.67;;;;;-147.17;100.00;-15917.19;4988855;28;50944;-59
2022/12/22 05:53:13;;;;;;;;;0.00;0.00;;;;;-147.17;100.00;-15917.19;4986715;28;51695;-57
2022/12/22 05:55:38;;;;;;;;;0.00;0.00;;;;;-147.17;100.00;-15917.19;4987044;28;51435;-57
2022/12/22 05:58:04;;;;;;;;;0.00;0.00;;;;;-147.17;100.00;-15917.19;4974768;28;51687;-58
2022/12/22 06:00:30;;;;;;;;;0.00;0.00;;;;;-147.17;100.00;-15917.19;4994814;28;50967;-58
2022/12/22 06:02:57;;;;;;;;;0.00;0.00;;;;;-147.17;100.00;-15917.19;4988205;28;52019;-58
2022/12/22 06:05:22;;;;;;;;;0.00;0.00;;;;;-147.17;100.00;-15917.19;4994404;28;51067;-59
2022/12/22 06:07:47;;;;;;;;;0.00;0.00;;;;;-147.17;100.00;-15917.19;4991215;28;51383;-59
2022/12/22 06:10:13;;;;;;;;;0.00;0.00;;;;;-147.17;100.00;-15917.19;4981075;28;51288;-58
2022/12/22 06:12:42;;;;;;;;;0.00;0.00;;;;;-147.17;100.00;-15917.19;4988335;28;51927;-58
2022/12/22 06:15:11;;;;;;;;;0.00;0.00;;;;;-147.17;100.00;-15917.19;4986302;28;50848;-59
2022/12/22 06:17:37;;;;;;;;;0.00;0.00;;;;;-147.17;100.00;-15917.19;4980955;28;51179;-59
2022/12/22 06:20:04;;;;;;;;;1.00;0.00;;;;;-147.17;100.00;-15917.19;4994918;28;51009;-59
2022/12/22 06:22:29;;;;;;;;;0.00;0.00;;;;;-147.17;100.00;-15917.19;4989752;28;52412;-57
2022/12/22 06:24:55;;;;;;;;;0.00;0.00;;;;;-147.17;100.00;-15917.19;4987330;28;50885;-57
2022/12/22 06:27:20;;;;;;;;;1.00;1.00;;;;;-147.17;100.00;-15917.19;4985099;28;50959;-58
2022/12/22 06:29:45;;;;;;;;;0.00;0.00;;;;;-147.17;100.00;-15917.19;4993577;28;50997;-59
2022/12/22 06:32:11;;;;;;;;;0.00;0.00;;;;;-147.17;100.00;-15917.19;4994204;28;51016;-58
2022/12/22 06:34:36;;;;;;;;;0.00;0.00;;;;;-147.17;100.00;-15917.19;4989832;28;51106;-58
2022/12/22 06:37:01;;;;;;;;;0.00;0.00;;;;;-147.17;100.00;-15917.19;4985321;28;50996;-59
2022/12/22 06:39:27;;;;;;;;;0.00;0.00;;;;;-147.17;100.00;-15917.19;4986397;28;50951;-57
2022/12/22 06:44:36;;;;;;;;;1.67;0.67;;;;;-147.17;100.00;-15917.19;4985506;28;51147;-58
2022/12/22 06:47:02;;;;;;;;;1.33;1.33;;;;;-147.17;100.00;-15917.19;4982653;28;51118;-57
2022/12/22 06:49:27;;;;;;;;;1.00;0.67;;;;;-147.17;100.00;-15917.19;4993558;28;51132;-58
2022/12/22 06:51:52;;;;;;;;;0.00;0.00;;;;;-147.17;100.00;-15917.19;4991415;28;51728;-58
2022/12/22 06:54:18;;;;;;;;;0.00;0.00;;;;;-147.17;100.00;-15917.19;4986975;28;51101;-59
2022/12/22 06:56:43;;;;;;;;;2.00;1.00;;;;;-147.17;100.00;-15917.19;4979009;28;51177;-58
2022/12/22 06:59:08;;;;;;;;;1.33;1.33;;;;;-147.17;100.00;-15917.19;4990927;28;51580;-58
2022/12/22 07:01:34;;;;;;;;;1.00;1.00;;;;;-147.17;100.00;-15917.19;4985024;28;51878;-58
2022/12/22 07:03:59;;;;;;;;;3.00;3.00;;;;;-147.17;100.00;-15917.19;4986077;28;51134;-58
2022/12/22 07:06:25;;;;;;;;;1.33;1.33;;;;;-147.17;100.00;-15917.19;4985680;28;51880;-58
2022/12/22 07:08:50;;;;;;;;;2.67;2.33;;;;;-147.17;100.00;-15917.19;4987222;28;51386;-58
2022/12/22 07:11:16;;;;;;;;;4.00;3.00;;;;;-147.17;100.00;-15917.19;4991856;28;51162;-59
2022/12/22 07:13:42;;;;;;;;;2.67;2.00;;;;;-147.17;100.00;-15917.19;4990547;28;51086;-58
2022/12/22 07:16:09;;;;;;;;;5.33;4.67;;;;;-147.17;100.00;-15917.19;4976052;28;52812;-58
2022/12/22 07:18:37;;;;;;;;;5.67;3.67;;;;;-147.17;100.00;-15917.19;4975212;28;51130;-58
2022/12/22 07:21:09;;;;;;;;;5.00;4.00;;;;;-147.17;100.00;-15917.19;4985635;28;52226;-57
2022/12/22 07:23:34;;;;;;;;;6.00;4.67;;;;;-147.17;100.00;-15917.19;4985023;28;51214;-58
2022/12/22 07:26:00;;;;;;;;;9.00;7.33;;;;;-147.17;100.00;-15917.19;4971435;28;51333;-58
2022/12/22 07:28:26;;;;;;;;;6.33;4.67;;;;;-147.17;100.00;-15917.19;4991684;28;51060;-57
2022/12/22 07:30:52;;;;;;;;;8.33;8.00;;;;;-147.17;100.00;-15917.19;4991917;28;51718;-57
2022/12/22 07:33:18;;;;;;;;;5.00;4.00;;;;;-147.17;100.00;-15917.19;4985920;28;51097;-58
2022/12/22 07:35:44;;;;;;;;;5.00;4.00;;;;;-147.17;100.00;-15917.19;4990569;28;51170;-58
2022/12/22 07:38:10;;;;;;;;;8.00;5.33;;;;;-147.17;100.00;-15917.19;4969444;28;51360;-59
2022/12/22 07:40:35;;;;;;;;;5.00;4.00;;;;;-147.17;100.00;-15917.19;4978670;28;51648;-58
2022/12/22 07:43:01;;;;;;;;;6.00;5.33;;;;;-147.17;100.00;-15917.19;4978315;28;51233;-59
2022/12/22 07:45:27;;;;;;;;;8.00;6.33;;;;;-147.17;100.00;-15917.19;4971433;28;51455;-58
2022/12/22 07:50:23;;;;;;;;;7.00;5.67;;;;;-147.17;100.00;-15917.19;4978581;28;51170;-57
2022/12/22 07:50:46;;;;;;;;;10.33;8.33;;;;;-147.17;100.00;-15917.19;4972205;28;52172;-59
2022/12/22 07:53:12;;;;;;;;;10.33;8.00;;;;;-147.17;100.00;-15917.19;4985709;28;51130;-57
2022/12/22 07:55:37;;;;;;;;;7.33;6.33;;;;;-147.17;100.00;-15917.19;4979254;28;51238;-58
2022/12/22 07:58:03;;;;;;;;;6.00;5.67;;;;;-147.17;100.00;-15917.19;4977842;28;51939;-57
2022/12/22 08:00:29;;;;;;;;;4.67;4.00;;;;;-147.17;100.00;-15917.19;4983863;28;51194;-59
2022/12/22 08:02:55;;;;;;;;;10.00;7.00;;;;;-147.17;100.00;-15917.19;4985336;28;51230;-59
2022/12/22 08:05:24;;;;;;;;;9.33;6.67;;;;;-147.17;100.00;-15917.19;4976757;28;51166;-57
2022/12/22 08:07:50;;;;;;;;;10.67;5.00;;;;;-147.17;100.00;-15917.19;4979777;28;51279;-57
2022/12/22 08:10:17;;;;;;;;;11.00;8.67;;;;;-147.17;100.00;-15917.19;4991617;28;51778;-58
2022/12/22 08:12:43;;;;;;;;;9.67;6.67;;;;;-147.17;100.00;-15917.19;4988511;28;52385;-60
2022/12/22 08:15:09;;;;;;;;;10.67;6.67;;;;;-147.17;100.00;-15917.19;4985633;28;51153;-59
2022/12/22 08:17:35;;;;;;;;;12.00;9.33;;;;;-147.17;100.00;-15917.19;4979250;28;50979;-58
2022/12/22 08:20:00;;;;;;;;;6.67;5.67;;;;;-147.17;100.00;-15917.19;4983895;28;52083;-58
2022/12/22 08:22:26;;;;;;;;;8.33;5.33;;;;;-147.17;100.00;-15917.19;4979808;28;50936;-58
2022/12/22 08:24:52;;;;;;;;;13.33;9.33;;;;;-147.17;100.00;-15917.19;4988670;28;51084;-58
2022/12/22 08:27:43;;;;;;;;;11.67;8.33;;;;;-147.17;100.00;-15917.19;4985723;28;50948;-58
2022/12/22 08:30:09;;;;;;;;;6.00;6.00;;;;;-147.17;100.00;-15917.19;4980543;28;52237;-58
2022/12/22 08:32:36;;;;;;;;;12.33;7.33;;;;;-147.17;100.00;-15917.19;4983803;28;50869;-59
2022/12/22 08:35:02;;;;;;;;;11.00;7.33;;;;;-147.17;100.00;-15917.19;4977135;28;51165;-58
2022/12/22 08:37:32;;;;;;;;;7.67;5.33;;;;;-147.17;100.00;-15917.19;4977246;28;51350;-59
2022/12/22 08:40:03;;;;;;;;;7.00;6.67;;;;;-147.17;100.00;-15917.19;4982913;28;52031;-58
2022/12/22 08:42:29;;;;;;;;;6.00;5.00;;;;;-147.17;100.00;-15917.19;4970714;28;51619;-59
2022/12/22 08:44:54;;;;;;;;;9.33;7.67;;;;;-147.17;100.00;-15917.19;4980697;28;51179;-58
2022/12/22 08:47:20;;;;;;;;;11.00;7.67;;;;;-147.17;100.00;-15917.19;4968057;28;51303;-58
2022/12/22 08:49:46;;;;;;;;;11.00;8.33;;;;;-147.17;100.00;-15917.19;4969599;28;51904;-57
2022/12/22 08:52:12;;;;;;;;;9.33;8.00;;;;;-147.17;100.00;-15917.19;4973422;28;51172;-57
2022/12/22 08:54:37;;;;;;;;;7.00;4.33;;;;;-147.17;100.00;-15917.19;4976904;28;51158;-61
2022/12/22 08:57:03;;;;;;;;;14.33;8.00;;;;;-147.17;100.00;-15917.19;4974707;28;51405;-58
2022/12/22 08:59:28;;;;;;;;;10.67;8.67;;;;;-147.17;100.00;-15917.19;4988455;28;52264;-58
2022/12/22 09:01:54;;;;;;;;;9.00;7.00;;;;;-147.17;100.00;-15917.19;4976693;28;51264;-57
2022/12/22 09:04:21;;;;;;;;;9.33;7.33;;;;;-147.17;100.00;-15917.19;4992072;28;51216;-58
2022/12/22 09:06:47;;;;;;;;;9.67;6.00;;;;;-147.17;100.00;-15917.19;4987367;28;51145;-58
2022/12/22 09:09:13;;;;;;;;;9.67;8.00;;;;;-147.17;100.00;-15917.19;4985832;28;51871;-57
2022/12/22 09:11:40;;;;;;;;;9.00;6.67;;;;;-147.17;100.00;-15917.19;4977939;28;51074;-57
2022/12/22 09:14:07;;;;;;;;;8.67;6.67;;;;;-147.17;100.00;-15917.19;4988476;28;51214;-57
2022/12/22 09:16:34;;;;;;;;;10.33;8.00;;;;;-147.17;100.00;-15917.19;4983112;28;51211;-58
2022/12/22 09:19:00;;;;;;;;;9.33;7.33;;;;;-147.17;100.00;-15917.19;4981127;28;51204;-58
2022/12/22 09:21:26;;;;;;;;;11.67;8.00;;;;;-147.17;100.00;-15917.19;4989646;28;51074;-58
2022/12/22 09:23:53;;;;;;;;;11.33;9.00;;;;;-147.17;100.00;-15917.19;4994639;28;51257;-58
2022/12/22 09:26:21;;;;;;;;;12.67;8.67;;;;;-147.17;100.00;-15917.19;4989832;28;52824;-58
2022/12/22 09:28:46;;;;;;;;;14.67;8.67;;;;;-147.17;100.00;-15917.19;4977841;28;52936;-59
2022/12/22 09:31:13;;;;;;;;;11.33;6.67;;;;;-147.17;100.00;-15917.19;4992911;28;52050;-58
2022/12/22 09:33:38;;;;;;;;;12.33;7.33;;;;;-147.17;100.00;-15917.19;4992647;28;51063;-57
2022/12/22 09:36:11;;;;;;;;;12.33;8.67;;;;;-147.17;100.00;-15917.19;4993351;28;51039;-58
2022/12/22 09:38:38;;;;;;;;;10.33;8.33;;;;;-147.17;100.00;-15917.19;4993816;28;51741;-59
2022/12/22 09:41:13;;;;;;;;;15.33;12.00;;;;;-147.17;100.00;-15917.19;4975857;28;51123;-57
2022/12/22 09:43:39;;;;;;;;;15.00;12.33;;;;;-147.17;100.00;-15917.19;4994841;28;50975;-58
2022/12/22 09:46:17;;;;;;;;;14.67;11.33;;;;;-147.17;100.00;-15917.19;4994727;28;51073;-58
2022/12/22 09:48:42;;;;;;;;;8.33;7.33;;;;;-147.17;100.00;-15917.19;4994691;28;51099;-57
2022/12/22 09:51:11;;;;;;;;;10.67;8.67;;;;;-147.17;100.00;-15917.19;4990849;28;51043;-58
2022/12/22 09:53:37;;;;;;;;;19.00;16.33;;;;;-147.17;100.00;-15917.19;4994437;28;51088;-58
2022/12/22 09:56:03;;;;;;;;;17.00;11.33;;;;;-147.17;100.00;-15917.19;4994636;28;51777;-58
2022/12/22 09:58:33;;;;;;;;;16.67;10.33;;;;;-147.17;100.00;-15917.19;4994467;28;51025;-58
2022/12/22 10:01:09;;;;;;;;;9.33;7.33;;;;;-147.17;100.00;-15917.19;4992546;28;51039;-58
2022/12/22 10:03:37;;;;;;;;;9.33;8.33;;;;;-147.17;100.00;-15917.19;4992159;28;51135;-58
2022/12/22 10:06:11;;;;;;;;;9.67;8.67;;;;;-147.17;100.00;-15917.19;4994456;28;51054;-58
2022/12/22 10:08:39;;;;;;;;;9.00;8.33;;;;;-147.17;100.00;-15917.19;4992954;28;51626;-59
2022/12/22 10:11:06;;;;;;;;;10.67;7.67;;;;;-147.17;100.00;-15917.19;4994293;28;51264;-58
2022/12/22 10:13:32;;;;;;;;;13.00;8.33;;;;;-147.17;100.00;-15917.19;4994782;28;51141;-59
2022/12/22 10:15:57;;;;;;;;;9.33;6.67;;;;;-147.17;100.00;-15917.19;4994190;28;50825;-57
2022/12/22 10:18:26;;;;;;;;;13.33;9.00;;;;;-147.17;100.00;-15917.19;4994112;28;52171;-57
2022/12/22 10:21:00;;;;;;;;;13.67;9.33;;;;;-147.17;100.00;-15917.19;4994323;28;51065;-57
2022/12/22 10:23:28;;;;;;;;;9.00;8.00;;;;;-147.17;100.00;-15917.19;4994361;28;51050;-58
2022/12/22 10:25:57;;;;;;;;;12.67;10.00;;;;;-147.17;100.00;-15917.19;4994544;28;51054;-56
2022/12/22 10:28:51;;;;;;;;;16.33;11.67;;;;;-147.17;100.00;-15917.19;4993631;28;51097;-57
2022/12/22 10:31:21;;;;;;;;;13.33;8.67;;;;;-147.17;100.00;-15917.19;4993628;28;50894;-58
2022/12/22 10:33:49;;;;;;;;;14.00;8.00;;;;;-147.17;100.00;-15917.19;4991979;28;50975;-58
2022/12/22 10:36:27;;;;;;;;;17.33;11.00;;;;;-147.17;100.00;-15917.19;4987461;28;50964;-58
2022/12/22 10:38:55;;;;;;;;;9.33;6.67;;;;;-147.17;100.00;-15917.19;4993604;28;51169;-57
2022/12/22 10:41:25;;;;;;;;;11.33;9.00;;;;;-147.17;100.00;-15917.19;4993386;28;51019;-57
2022/12/22 10:43:54;;;;;;;;;9.00;7.33;;;;;-147.17;100.00;-15917.19;4993649;28;51114;-59
2022/12/22 10:46:30;;;;;;;;;14.67;10.00;;;;;-147.17;100.00;-15917.19;4993035;28;51019;-58
2022/12/22 10:49:09;;;;;;;;;10.67;10.33;;;;;-147.17;100.00;-15917.19;4982873;28;52045;-59
2022/12/22 10:51:35;;;;;;;;;11.00;8.00;;;;;-147.17;100.00;-15917.19;4992943;28;51015;-59
2022/12/22 10:54:00;;;;;;;;;15.33;12.33;;;;;-147.17;100.00;-15917.19;4993385;28;51198;-59
2022/12/22 10:56:29;;;;;;;;;15.00;12.00;;;;;-147.17;100.00;-15917.19;4993343;28;50936;-59
2022/12/22 10:59:00;;;;;;;;;15.00;10.00;;;;;-147.17;100.00;-15917.19;4993010;28;52145;-58
2022/12/22 11:01:33;;;;;;;;;16.33;11.00;;;;;-147.17;100.00;-15917.19;4993049;28;51006;-59
2022/12/22 11:04:22;;;;;;;;;12.33;9.67;;;;;-147.17;100.00;-15917.19;4993150;28;51182;-58
2022/12/22 11:06:47;;;;;;;;;14.00;11.33;;;;;-147.17;100.00;-15917.19;4993665;28;51127;-58
2022/12/22 11:09:13;;;;;;;;;14.33;12.00;;;;;-147.17;100.00;-15917.19;4992718;28;50989;-57
2022/12/22 11:11:54;;;;;;;;;13.33;11.67;;;;;-147.17;100.00;-15917.19;4992892;28;51065;-58
2022/12/22 11:14:38;;;;;;;;;16.67;12.67;;;;;-147.17;100.00;-15917.19;4992842;28;50931;-57
2022/12/22 11:17:25;;;;;;;;;13.67;9.00;;;;;-147.17;100.00;-15917.19;4993067;28;51067;-57
2022/12/22 11:20:12;;;;;;;;;10.33;9.00;;;;;-147.17;100.00;-15917.19;4992507;28;52445;-58
2022/12/22 11:22:45;;;;;;;;;14.67;13.33;;;;;-147.17;100.00;-15917.19;4992735;28;50970;-58
2022/12/22 11:25:41;;;;;;;;;11.00;9.33;;;;;-147.17;100.00;-15917.19;4992805;28;50894;-58
2022/12/22 11:28:18;;;;;;;;;15.00;11.00;;;;;-147.17;100.00;-15917.19;4940816;28;51424;-57
2022/12/22 11:30:50;;;;;;;;;16.00;9.33;;;;;-147.17;100.00;-15917.19;4992355;28;52155;-58
2022/12/22 11:33:52;;;;;;;;;9.00;8.00;;;;;-147.17;100.00;-15917.19;4992482;28;51169;-57
2022/12/22 11:36:44;;;;;;;;;14.33;10.33;;;;;-147.17;100.00;-15917.19;4992755;28;51074;-58
2022/12/22 11:39:22;;;;;;;;;16.00;12.00;;;;;-147.17;100.00;-15917.19;4975157;28;51170;-57
2022/12/22 11:41:57;;;;;;;;;10.00;8.33;;;;;-147.17;100.00;-15917.19;4991339;28;52957;-59
2022/12/22 11:44:26;;;;;;;;;15.00;12.67;;;;;-147.17;100.00;-15917.19;4974926;28;51030;-58
2022/12/22 11:47:06;;;;;;;;;9.00;5.67;;;;;-147.17;100.00;-15917.19;4987739;28;51020;-58
2022/12/22 11:49:41;;;;;;;;;20.00;16.33;;;;;-147.17;100.00;-15917.19;4988234;28;51057;-59
2022/12/22 11:52:31;;;;;;;;;10.33;8.33;;;;;-147.17;100.00;-15917.19;4992281;28;51919;-59
2022/12/22 11:55:15;;;;;;;;;14.00;10.00;;;;;-147.17;100.00;-15917.19;4979729;28;51143;-58
2022/12/22 11:58:01;;;;;;;;;11.00;10.00;;;;;-147.17;100.00;-15917.19;4992260;28;51039;-58
2022/12/22 12:00:33;;;;;;;;;14.00;9.00;;;;;-147.17;100.00;-15917.19;4957729;28;51196;-58
2022/12/22 12:03:21;;;;;;;;;12.33;11.00;;;;;-147.17;100.00;-15917.19;4991655;28;51707;-59
2022/12/22 12:06:29;;;;;;;;;16.33;11.33;;;;;-147.17;100.00;-15917.19;4991992;28;50966;-58
2022/12/22 12:09:25;;;;;;;;;12.67;8.67;;;;;-147.17;100.00;-15917.19;4944920;28;51207;-57
2022/12/22 12:12:17;;;;;;;;;17.67;11.67;;;;;-147.17;100.00;-15917.19;4992144;28;51183;-58
2022/12/22 12:15:04;;;;;;;;;18.00;11.33;;;;;-147.17;100.00;-15917.19;4991786;28;51822;-58
2022/12/22 12:18:05;;;;;;;;;17.67;12.00;;;;;-147.17;100.00;-15917.19;4992025;28;51059;-58
2022/12/22 12:20:56;;;;;;;;;16.67;11.67;;;;;-147.17;100.00;-15917.19;4948237;28;51185;-57
2022/12/22 12:23:43;;;;;;;;;14.00;10.00;;;;;-147.17;100.00;-15917.19;4968843;28;51344;-57
2022/12/22 12:26:17;;;;;;;;;14.67;11.00;;;;;-147.17;100.00;-15917.19;4991930;28;51747;-57
2022/12/22 12:28:56;;;;;;;;;15.33;11.00;;;;;-147.17;100.00;-15917.19;4991873;28;51081;-58
2022/12/22 12:31:28;;;;;;;;;15.00;11.00;;;;;-147.17;100.00;-15917.19;4991817;28;50959;-57
2022/12/22 12:34:00;;;;;;;;;9.67;9.00;;;;;-147.17;100.00;-15917.19;4989705;28;51187;-58
2022/12/22 12:36:38;;;;;;;;;15.00;11.00;;;;;-147.17;100.00;-15917.19;4986592;28;51935;-59
2022/12/22 12:39:09;;;;;;;;;19.00;16.00;;;;;-147.17;100.00;-15917.19;4991769;28;51127;-57
2022/12/22 12:41:50;;;;;;;;;11.67;10.33;;;;;-147.17;100.00;-15917.19;4991804;28;51093;-57
2022/12/22 12:44:19;;;;;;;;;11.00;9.00;;;;;-147.17;100.00;-15917.19;4992155;28;51267;-57
2022/12/22 12:46:55;;;;;;;;;16.33;14.33;;;;;-147.17;100.00;-15917.19;4973422;28;52133;-57
2022/12/22 12:49:35;;;;;;;;;17.00;11.33;;;;;-147.17;100.00;-15917.19;4991791;28;51118;-57
2022/12/22 12:52:02;;;;;;;;;14.00;9.33;;;;;-147.17;100.00;-15917.19;4991729;28;50941;-57
2022/12/22 12:54:27;;;;;;;;;13.00;9.67;;;;;-147.17;100.00;-15917.19;4977486;28;51256;-57
2022/12/22 12:56:57;;;;;;;;;14.67;10.00;;;;;-147.17;100.00;-15917.19;4994840;28;50958;-57
2022/12/22 12:59:40;;;;;;;;;17.00;13.00;;;;;-147.17;100.00;-15917.19;4994794;28;50922;-58
2022/12/22 13:02:39;;;;;;;;;19.33;15.00;;;;;-147.17;100.00;-15917.19;4995093;28;51273;-58
2022/12/22 13:05:26;;;;;;;;;12.67;11.33;;;;;-147.17;100.00;-15917.19;4941732;28;51053;-57
2022/12/22 13:08:11;;;;;;;;;13.00;11.33;;;;;-147.17;100.00;-15917.19;4977154;28;51911;-57
2022/12/22 13:10:53;;;;;;;;;13.33;9.67;;;;;-147.17;100.00;-15917.19;4994577;28;50913;-57
2022/12/22 13:13:21;;;;;;;;;13.00;13.00;;;;;-147.17;100.00;-15917.19;4995012;28;51058;-58
2022/12/22 13:16:08;;;;;;;;;16.67;11.00;;;;;-147.17;100.00;-15917.19;4994495;28;50841;-59
2022/12/22 13:18:33;;;;;;;;;7.67;7.00;;;;;-147.17;100.00;-15917.19;4983413;28;51341;-57
2022/12/22 13:21:05;;;;;;;;;18.67;14.33;;;;;-147.17;100.00;-15917.19;4994485;28;51120;-59
2022/12/22 13:23:43;;;;;;;;;11.00;10.00;;;;;-147.17;100.00;-15917.19;4994731;28;50928;-57
2022/12/22 13:26:16;;;;;;;;;13.00;8.67;;;;;-147.17;100.00;-15917.19;4994669;28;50900;-58
2022/12/22 13:28:47;;;;;;;;;8.33;7.67;;;;;-147.17;100.00;-15917.19;4994503;28;52966;-58
2022/12/22 13:31:19;;;;;;;;;16.33;14.33;;;;;-147.17;100.00;-15917.19;4994003;28;51021;-58
2022/12/22 13:33:51;;;;;;;;;16.00;10.00;;;;;-147.17;100.00;-15917.19;4994410;28;51146;-61
2022/12/22 13:36:25;;;;;;;;;17.33;12.33;;;;;-147.17;100.00;-15917.19;4994375;28;51050;-58
2022/12/22 13:39:03;;;;;;;;;10.67;8.67;;;;;-147.17;100.00;-15917.19;4994204;28;52129;-58
2022/12/22 13:41:29;;;;;;;;;11.00;8.00;;;;;-147.17;100.00;-15917.19;4994289;28;50925;-58
2022/12/22 13:44:05;;;;;;;;;13.33;11.67;;;;;-147.17;100.00;-15917.19;4990139;28;51152;-57
2022/12/22 13:46:37;;;;;;;;;9.67;8.33;;;;;-147.17;100.00;-15917.19;4992425;28;51062;-58
2022/12/22 13:49:08;;;;;;;;;12.67;11.00;;;;;-147.17;100.00;-15917.19;4994401;28;52180;-58
2022/12/22 13:51:36;;;;;;;;;9.33;6.67;;;;;-147.17;100.00;-15917.19;4994131;28;51031;-58
2022/12/22 13:54:03;;;;;;;;;7.33;6.00;;;;;-147.17;100.00;-15917.19;4994110;28;51078;-57
2022/12/22 13:56:36;;;;;;;;;14.00;10.33;;;;;-147.17;100.00;-15917.19;4994609;28;50874;-56
2022/12/22 13:59:10;;;;;;;;;13.00;10.67;;;;;-147.17;100.00;-15917.19;4993748;28;52755;-58
2022/12/22 14:01:47;;;;;;;;;10.67;9.00;;;;;-147.17;100.00;-15917.19;4994168;28;50950;-58
2022/12/22 14:04:13;;;;;;;;;13.33;12.00;;;;;-147.17;100.00;-15917.19;4975045;28;51084;-60
2022/12/22 14:06:39;;;;;;;;;10.00;8.00;;;;;-147.17;100.00;-15917.19;4994055;28;50921;-58
2022/12/22 14:09:25;;;;;;;;;9.33;6.33;;;;;-147.17;100.00;-15917.19;4993871;28;51189;-57
2022/12/22 14:12:06;;;;;;;;;11.00;8.33;;;;;-147.17;100.00;-15917.19;4993763;28;51052;-58
2022/12/22 14:14:37;;;;;;;;;9.67;7.00;;;;;-147.17;100.00;-15917.19;4993786;28;51079;-57
2022/12/22 14:17:15;;;;;;;;;13.00;11.67;;;;;-147.17;100.00;-15917.19;4994076;28;50973;-57
2022/12/22 14:19:40;;;;;;;;;17.00;8.00;;;;;-147.17;100.00;-15917.19;4994243;28;50996;-57
2022/12/22 14:22:10;;;;;;;;;13.33;10.00;;;;;-147.17;100.00;-15917.19;4993568;28;50949;-57
2022/12/22 14:25:02;;;;;;;;;15.00;8.00;;;;;-147.17;100.00;-15917.19;4976452;28;50992;-57
2022/12/22 14:27:31;;;;;;;;;9.33;6.67;;;;;-147.17;100.00;-15917.19;4994196;28;51011;-57
2022/12/22 14:29:58;;;;;;;;;8.67;7.33;;;;;-147.17;100.00;-15917.19;4992898;28;51120;-59
2022/12/22 14:32:34;;;;;;;;;13.67;11.33;;;;;-147.17;100.00;-15917.19;4993716;28;51142;-58
2022/12/22 14:34:59;;;;;;;;;9.00;7.00;;;;;-147.17;100.00;-15917.19;4986765;28;51120;-58
2022/12/22 14:37:25;;;;;;;;;7.67;6.00;;;;;-147.17;100.00;-15917.19;4993963;28;50896;-58
2022/12/22 14:39:55;;;;;;;;;11.00;8.00;;;;;-147.17;100.00;-15917.19;4993214;28;51766;-58
2022/12/22 14:42:20;;;;;;;;;9.33;9.00;;;;;-147.17;100.00;-15917.19;4990992;28;51126;-58
2022/12/22 14:44:47;;;;;;;;;12.00;8.00;;;;;-147.17;100.00;-15917.19;4989961;28;51045;-58
2022/12/22 14:47:16;;;;;;;;;9.00;8.00;;;;;-147.17;100.00;-15917.19;4993921;28;51050;-58
2022/12/22 14:49:59;;;;;;;;;6.33;5.33;;;;;-147.17;100.00;-15917.19;4993139;28;52026;-57